Airfield :
LOGIN :

Register | Disclaimer

   EN    FR    IT 

 










Legend :    VFR   Marginal VFR   IFR   Intensive IFR   Very Intensive IFR
Visi :
Ceiling :
>= 8 km
>= 3000ft
5 to 8 km
1000 to 3000 ft
1500m to 5 km
500 to 1000 ft
800 to 1500m
200 to 500 ft
< 800m
< 200 ft
Symbols :   Thunderstorms  Fog  Heavy snow  Heavy precipitations  Wind > 20 kt
SIGMETs :     Misc.  Thunderstorms  Icing  Turbulence  Mountain Waves  Volcanic Ashes






- Airport Elevation : 187 ft


ETNW - Wunstorf AB

CURRENT METAR :
  • 281520Z 01009KT 9999 FEW060 19/03 Q1030 BLU+BLU+

EXPIRED METARs :
  • 281420Z 36008KT 9999 FEW060 21/03 Q1031 BLU+BLU+
  • 281320Z 36009KT 9999 FEW060 20/03 Q1031 BLU+BLU+

TAF TAF ETNW
Valid from the 28 at 11:00 until the 29 at 11:00 UTC


281000Z 2811/2911 33008KT 9999 NSW FEW040 SCT240
TEMPO 2900/2907 34003KT 2500 BR FEW260
PROB30 2902/2905 VRB02KT 1500 MIFG FEW280 BY ETGL



MET'MAP, your aeronautical weather chart ! - Copyright ORBIFLY December 2007 - Disclaimer

ORBIFLY MET'MAP TEAM :

Programming & Development : Alexandra Zaïnal
Concept & original design : Baudouin d'Aumeries
Assistance for programming : Marc-Olivier Méhu
Technical & hardware support : Manuel Goepfert

Contact : metmap@orbifly.com




SOURCES & CREDITS :

   NOAA